Time;durP1;ratioP1;P1;durP2;ratioP2;P2;SDS_P1;SDS_P2;PMS_P1;PMS_P2;Temp;Humidity;BMP_temperature;BMP_pressure;BME280_temperature;BME280_humidity;BME280_pressure;Samples;Min_cycle;Max_cycle;Signal;HPM_P1;HPM_P2
2021/09/06 00:02:16;;;;;;;10.48;6.32;;;16.10;99.90;;;;;;8254341;28;20065;-73
2021/09/06 00:06:18;;;;;;;10.38;6.25;;;16.10;99.90;;;;;;8256963;28;20066;-73
2021/09/06 00:10:20;;;;;;;10.27;6.05;;;15.90;99.90;;;;;;8256353;28;20043;-73
2021/09/06 00:14:21;;;;;;;8.95;4.82;;;15.90;99.90;;;;;;8253717;28;20046;-73
2021/09/06 00:18:25;;;;;;;9.68;4.97;;;15.90;99.90;;;;;;8253179;28;20043;-73
2021/09/06 00:22:26;;;;;;;9.55;4.90;;;15.90;99.90;;;;;;8256528;28;20054;-73
2021/09/06 00:26:28;;;;;;;9.10;5.30;;;15.80;99.90;;;;;;8276963;28;20073;-73
2021/09/06 00:30:30;;;;;;;11.63;5.57;;;15.80;99.90;;;;;;8260614;28;20049;-73
2021/09/06 00:34:32;;;;;;;9.45;5.15;;;15.70;99.90;;;;;;8260145;28;20050;-73
2021/09/06 00:38:34;;;;;;;11.18;6.10;;;15.60;99.90;;;;;;8262145;28;20098;-73
2021/09/06 00:42:35;;;;;;;11.38;5.93;;;15.60;99.90;;;;;;8260397;28;20057;-73
2021/09/06 00:46:43;;;;;;;12.43;6.82;;;15.50;99.90;;;;;;8260602;28;20057;-74
2021/09/06 00:50:46;;;;;;;10.77;6.05;;;15.50;99.90;;;;;;8261674;28;20479;-73
2021/09/06 00:54:49;;;;;;;10.95;6.45;;;15.50;99.90;;;;;;8275653;28;20043;-74
2021/09/06 00:58:51;;;;;;;10.60;6.20;;;15.50;99.90;;;;;;8261278;28;20065;-73
2021/09/06 01:02:53;;;;;;;12.75;6.93;;;15.40;99.90;;;;;;8259339;28;20065;-73
2021/09/06 01:06:55;;;;;;;12.15;6.68;;;15.30;99.90;;;;;;8259586;28;20157;-73
2021/09/06 01:10:57;;;;;;;11.45;6.55;;;15.30;99.90;;;;;;8260500;28;20051;-73
2021/09/06 01:14:59;;;;;;;11.48;6.20;;;15.20;99.90;;;;;;8259637;28;20057;-73
2021/09/06 01:19:01;;;;;;;16.17;7.25;;;15.20;99.90;;;;;;8259821;28;20188;-73
2021/09/06 01:23:02;;;;;;;10.82;6.82;;;15.10;99.90;;;;;;8256585;28;20058;-73
2021/09/06 01:27:04;;;;;;;10.73;5.97;;;15.10;99.90;;;;;;8259992;28;20047;-73
2021/09/06 01:31:06;;;;;;;10.40;6.05;;;15.10;99.90;;;;;;8259235;28;20042;-73
2021/09/06 01:35:08;;;;;;;10.50;5.35;;;15.00;99.90;;;;;;8274631;28;20105;-73
2021/09/06 01:39:11;;;;;;;10.27;5.95;;;15.00;99.90;;;;;;8259493;28;20077;-73
2021/09/06 01:43:13;;;;;;;10.60;6.07;;;15.00;99.90;;;;;;8258192;28;20069;-73
2021/09/06 01:47:15;;;;;;;10.80;6.32;;;14.90;99.90;;;;;;8259913;28;20054;-73
2021/09/06 01:51:17;;;;;;;9.95;6.07;;;14.90;99.90;;;;;;8259077;28;20503;-73
2021/09/06 01:55:18;;;;;;;12.55;6.65;;;14.80;99.90;;;;;;8258587;28;20050;-73
2021/09/06 01:59:20;;;;;;;11.57;6.68;;;14.80;99.90;;;;;;8259739;28;20061;-73
2021/09/06 02:03:22;;;;;;;10.80;6.80;;;14.70;99.90;;;;;;8258715;28;20062;-73
2021/09/06 02:07:24;;;;;;;11.77;6.60;;;14.70;99.90;;;;;;8259920;28;20390;-73
2021/09/06 02:11:26;;;;;;;12.18;6.22;;;14.60;99.90;;;;;;8258691;28;20054;-73
2021/09/06 02:15:28;;;;;;;12.32;6.70;;;14.60;99.90;;;;;;8259924;28;20046;-73
2021/09/06 02:19:30;;;;;;;12.38;7.15;;;14.60;99.90;;;;;;8271026;28;20057;-73
2021/09/06 02:23:31;;;;;;;13.20;7.03;;;14.60;99.90;;;;;;8258249;28;20052;-73
2021/09/06 02:27:33;;;;;;;13.07;7.20;;;14.50;99.90;;;;;;8259639;28;20046;-73
2021/09/06 02:31:35;;;;;;;12.23;6.80;;;14.50;99.90;;;;;;8255940;28;20053;-73
2021/09/06 02:35:37;;;;;;;10.95;6.82;;;14.40;99.90;;;;;;8258676;28;20054;-73
2021/09/06 02:39:39;;;;;;;12.05;6.85;;;14.40;99.90;;;;;;8257795;28;20046;-73
2021/09/06 02:43:40;;;;;;;11.50;6.88;;;14.40;99.90;;;;;;8255610;28;20418;-73
2021/09/06 02:47:47;;;;;;;11.88;7.03;;;14.30;99.90;;;;;;8257965;28;20049;-73
2021/09/06 02:51:50;;;;;;;10.82;6.88;;;14.30;99.90;;;;;;8257345;28;20137;-73
2021/09/06 02:55:51;;;;;;;11.45;6.53;;;14.30;99.90;;;;;;8273920;28;20112;-73
2021/09/06 02:59:53;;;;;;;13.48;7.13;;;14.20;99.90;;;;;;8257525;28;20054;-73
2021/09/06 03:03:55;;;;;;;13.38;6.80;;;14.20;99.90;;;;;;8255922;28;20124;-73
2021/09/06 03:07:57;;;;;;;12.43;6.97;;;14.10;99.90;;;;;;8258011;28;20053;-74
2021/09/06 03:11:59;;;;;;;11.60;7.15;;;14.10;99.90;;;;;;8255847;28;20069;-73
2021/09/06 03:16:01;;;;;;;12.27;7.13;;;14.10;99.90;;;;;;8256771;28;20479;-73
2021/09/06 03:20:03;;;;;;;12.40;7.15;;;14.10;99.90;;;;;;8257081;28;20052;-73
2021/09/06 03:24:05;;;;;;;11.77;6.82;;;14.10;99.90;;;;;;8256446;28;20049;-73
2021/09/06 03:28:06;;;;;;;9.65;5.63;;;14.10;99.90;;;;;;8256399;28;20302;-73
2021/09/06 03:32:08;;;;;;;11.15;6.38;;;14.00;99.90;;;;;;8256305;28;20053;-73
2021/09/06 03:36:10;;;;;;;10.05;6.00;;;14.00;99.90;;;;;;8254865;28;20050;-73
2021/09/06 03:40:12;;;;;;;10.75;6.07;;;14.00;99.90;;;;;;8256059;28;20047;-73
2021/09/06 03:44:14;;;;;;;10.43;6.10;;;13.90;99.90;;;;;;8255870;28;20055;-73
2021/09/06 03:48:15;;;;;;;12.20;6.65;;;13.90;99.90;;;;;;8256576;28;20039;-73
2021/09/06 03:52:17;;;;;;;12.98;6.22;;;13.80;99.90;;;;;;8256687;28;20038;-73
2021/09/06 03:56:19;;;;;;;12.52;6.40;;;13.80;99.90;;;;;;8267996;28;20046;-73
2021/09/06 04:00:21;;;;;;;10.38;6.13;;;13.80;99.90;;;;;;8267579;28;20375;-73
2021/09/06 04:04:23;;;;;;;10.23;5.93;;;13.80;99.90;;;;;;8264370;28;20053;-73
2021/09/06 04:08:25;;;;;;;10.98;6.38;;;13.70;99.90;;;;;;8268002;28;20046;-73
2021/09/06 04:12:27;;;;;;;10.23;5.78;;;13.70;99.90;;;;;;8266653;28;20057;-73
2021/09/06 04:16:29;;;;;;;11.60;6.25;;;13.70;99.90;;;;;;8267718;28;20457;-73
2021/09/06 04:20:30;;;;;;;11.95;6.47;;;13.70;99.90;;;;;;8261936;28;20071;-73
2021/09/06 04:24:32;;;;;;;13.45;7.07;;;13.60;99.90;;;;;;8264439;28;20054;-73
2021/09/06 04:28:34;;;;;;;10.05;6.28;;;13.60;99.90;;;;;;8267415;28;20057;-73
2021/09/06 04:32:35;;;;;;;13.05;7.28;;;13.60;99.90;;;;;;8263655;28;20077;-73
2021/09/06 04:36:37;;;;;;;13.30;7.68;;;13.50;99.90;;;;;;8260549;28;20057;-73
2021/09/06 04:40:40;;;;;;;12.52;6.70;;;13.50;99.90;;;;;;8265087;28;20046;-73
2021/09/06 04:44:42;;;;;;;12.10;6.32;;;13.50;99.90;;;;;;8259633;28;20054;-73
2021/09/06 04:48:43;;;;;;;11.07;6.80;;;13.40;99.90;;;;;;8263671;28;20408;-73
2021/09/06 04:52:45;;;;;;;13.88;7.63;;;13.40;99.90;;;;;;8263908;28;20188;-73
2021/09/06 04:56:47;;;;;;;12.20;6.63;;;13.40;99.90;;;;;;8266752;28;20521;-73
2021/09/06 05:00:49;;;;;;;12.27;6.78;;;13.30;99.90;;;;;;8261753;28;20050;-73
2021/09/06 05:04:51;;;;;;;11.20;6.28;;;13.40;99.90;;;;;;8263913;28;20058;-73
2021/09/06 05:08:53;;;;;;;12.43;5.85;;;13.40;99.90;;;;;;8262957;28;20058;-73
2021/09/06 05:12:54;;;;;;;13.57;6.53;;;13.30;99.90;;;;;;8261446;28;20076;-73
2021/09/06 05:16:56;;;;;;;13.90;7.40;;;13.30;99.90;;;;;;8263188;28;20051;-73
2021/09/06 05:20:59;;;;;;;13.80;7.63;;;13.30;99.90;;;;;;8257489;28;20054;-73
2021/09/06 05:25:01;;;;;;;13.45;7.97;;;13.30;99.90;;;;;;8275917;28;20065;-73
2021/09/06 05:29:03;;;;;;;12.27;7.20;;;13.30;99.90;;;;;;8262246;28;20485;-73
2021/09/06 05:33:05;;;;;;;14.18;7.32;;;13.40;99.90;;;;;;8260152;28;20058;-73
2021/09/06 05:37:07;;;;;;;14.77;7.40;;;13.40;99.90;;;;;;8260722;28;20046;-73
2021/09/06 05:41:09;;;;;;;15.52;7.25;;;13.50;99.90;;;;;;8261055;28;20057;-73
2021/09/06 05:45:11;;;;;;;12.70;7.10;;;13.50;99.90;;;;;;8261349;28;20046;-73
2021/09/06 05:49:13;;;;;;;14.73;7.75;;;13.50;99.90;;;;;;8260671;28;20523;-73
2021/09/06 05:53:15;;;;;;;14.82;7.72;;;13.50;99.90;;;;;;8262578;28;20050;-73
2021/09/06 05:57:17;;;;;;;16.17;7.07;;;13.60;99.90;;;;;;8255660;28;20046;-73
2021/09/06 06:01:19;;;;;;;15.00;7.90;;;13.70;99.90;;;;;;8267342;28;20057;-73
2021/09/06 06:05:21;;;;;;;12.35;7.03;;;13.80;99.90;;;;;;8250700;28;20050;-72
2021/09/06 06:09:23;;;;;;;15.20;7.47;;;13.80;99.90;;;;;;8252736;28;20567;-73
2021/09/06 06:13:24;;;;;;;13.05;7.30;;;13.90;99.90;;;;;;8251984;28;20478;-73
2021/09/06 06:17:26;;;;;;;13.20;7.53;;;14.00;99.90;;;;;;8252471;28;20541;-73
2021/09/06 06:21:29;;;;;;;16.95;8.70;;;14.10;99.90;;;;;;8265373;28;20046;-73
2021/09/06 06:25:31;;;;;;;14.35;7.80;;;14.20;99.90;;;;;;8238814;28;20046;-73
2021/09/06 06:29:32;;;;;;;18.13;8.63;;;14.20;99.90;;;;;;8250801;28;20054;-73
2021/09/06 06:33:34;;;;;;;12.98;7.28;;;14.30;99.90;;;;;;8249863;28;20053;-73
2021/09/06 06:37:36;;;;;;;15.88;7.20;;;14.40;99.90;;;;;;8250408;28;20045;-74
2021/09/06 06:41:38;;;;;;;12.40;7.50;;;14.60;99.90;;;;;;8250669;28;20770;-73
2021/09/06 06:45:40;;;;;;;15.80;8.48;;;14.70;99.90;;;;;;8251071;28;20097;-73
2021/09/06 06:49:42;;;;;;;13.60;8.30;;;14.80;99.90;;;;;;8237915;28;20513;-73
2021/09/06 06:53:46;;;;;;;15.07;8.45;;;15.00;99.90;;;;;;8249334;28;20747;-72
2021/09/06 06:57:48;;;;;;;15.13;8.18;;;15.10;99.90;;;;;;8250373;28;20057;-72
2021/09/06 07:01:50;;;;;;;15.65;8.82;;;15.30;99.90;;;;;;8248393;28;20046;-73
2021/09/06 07:05:53;;;;;;;14.60;9.18;;;15.40;99.90;;;;;;8249676;28;20050;-73
2021/09/06 07:09:54;;;;;;;17.02;9.65;;;15.60;99.90;;;;;;8238087;28;20433;-72
2021/09/06 07:13:56;;;;;;;20.63;10.40;;;15.80;99.90;;;;;;8235649;28;20046;-73
2021/09/06 07:17:59;;;;;;;17.58;9.88;;;15.90;99.90;;;;;;8249019;28;20042;-73
2021/09/06 07:22:00;;;;;;;16.80;9.32;;;16.10;99.90;;;;;;8252879;28;20050;-73
2021/09/06 07:26:02;;;;;;;18.10;10.07;;;16.20;99.90;;;;;;8242036;28;20046;-73
2021/09/06 07:30:05;;;;;;;21.33;10.23;;;16.40;99.90;;;;;;8243273;28;20055;-74
2021/09/06 07:34:07;;;;;;;20.30;10.75;;;16.60;99.90;;;;;;8243499;28;20081;-72
2021/09/06 07:38:09;;;;;;;20.20;10.73;;;16.70;99.90;;;;;;8248137;28;20051;-73
2021/09/06 07:42:11;;;;;;;19.48;10.85;;;16.90;99.90;;;;;;8235768;28;20049;-73
2021/09/06 07:46:13;;;;;;;18.55;11.40;;;17.00;99.90;;;;;;8248063;28;20050;-73
2021/09/06 07:50:18;;;;;;;18.63;10.50;;;17.20;99.90;;;;;;8235012;28;20074;-73
2021/09/06 07:54:22;;;;;;;18.90;11.50;;;17.30;99.90;;;;;;8247413;28;20046;-73
2021/09/06 07:58:25;;;;;;;18.63;10.60;;;17.50;99.90;;;;;;8248069;28;20097;-73
2021/09/06 08:02:26;;;;;;;18.75;10.55;;;17.50;99.90;;;;;;8246178;28;20051;-73
2021/09/06 08:06:29;;;;;;;20.45;10.75;;;17.60;99.90;;;;;;8248906;28;20046;-73
2021/09/06 08:10:30;;;;;;;20.63;12.13;;;17.70;99.90;;;;;;8248569;28;20062;-73
2021/09/06 08:14:32;;;;;;;19.33;11.93;;;17.80;99.90;;;;;;8242078;28;20050;-73
2021/09/06 08:18:34;;;;;;;16.60;10.57;;;17.90;99.90;;;;;;8249360;28;20129;-73
2021/09/06 08:22:36;;;;;;;20.27;11.07;;;18.00;99.90;;;;;;8241106;28;20422;-73
2021/09/06 08:26:37;;;;;;;18.42;9.75;;;18.10;99.90;;;;;;8251320;28;20073;-73
2021/09/06 08:30:39;;;;;;;20.10;10.32;;;18.30;99.90;;;;;;8242481;28;20061;-73
2021/09/06 08:34:41;;;;;;;20.48;10.90;;;18.40;99.90;;;;;;8248738;28;20045;-73
2021/09/06 08:38:43;;;;;;;21.15;10.68;;;18.60;99.90;;;;;;8249319;28;20145;-73
2021/09/06 08:42:45;;;;;;;18.58;10.20;;;18.70;99.90;;;;;;8257152;28;20054;-74
2021/09/06 08:46:46;;;;;;;17.25;9.52;;;18.90;99.90;;;;;;8252821;28;20459;-73
2021/09/06 08:50:48;;;;;;;15.13;8.73;;;19.00;99.90;;;;;;8251250;28;20053;-73
2021/09/06 08:54:50;;;;;;;13.23;8.02;;;19.10;99.90;;;;;;8253598;28;20038;-73
2021/09/06 08:58:52;;;;;;;12.15;7.43;;;19.20;99.90;;;;;;8253184;28;20049;-73
2021/09/06 09:02:54;;;;;;;12.98;8.02;;;19.30;99.90;;;;;;8266019;28;20053;-73
2021/09/06 09:07:15;;;;;;;17.00;8.52;;;19.40;99.90;;;;;;8255105;28;20104;-73
2021/09/06 09:11:17;;;;;;;12.98;7.45;;;19.60;99.90;;;;;;8251594;28;20050;-74
2021/09/06 09:15:20;;;;;;;13.23;8.07;;;19.70;99.90;;;;;;8252237;28;20101;-73
2021/09/06 09:19:23;;;;;;;15.50;7.57;;;19.80;99.90;;;;;;8249993;28;20065;-73
2021/09/06 09:23:57;;;;;;;14.65;7.70;;;19.80;99.90;;;;;;8251787;28;20509;-73
2021/09/06 09:27:59;;;;;;;13.38;7.70;;;19.90;99.90;;;;;;8251620;28;20398;-73
2021/09/06 09:32:09;;;;;;;11.18;6.65;;;20.00;99.90;;;;;;8250053;28;20049;-73
2021/09/06 09:36:11;;;;;;;11.77;6.90;;;20.10;99.90;;;;;;8252107;28;20070;-73
2021/09/06 09:40:13;;;;;;;12.15;6.80;;;20.10;99.90;;;;;;8252886;28;20058;-73
2021/09/06 09:44:21;;;;;;;11.00;6.75;;;20.20;99.90;;;;;;8249836;28;20133;-73
2021/09/06 09:48:23;;;;;;;16.05;7.20;;;20.20;99.90;;;;;;8251292;28;20047;-73
2021/09/06 09:52:25;;;;;;;13.23;7.75;;;20.30;99.90;;;;;;8250405;28;20042;-73
2021/09/06 09:56:27;;;;;;;12.20;7.57;;;20.30;99.90;;;;;;8252187;28;20109;-73
2021/09/06 10:00:28;;;;;;;12.18;6.72;;;20.30;99.90;;;;;;8250069;28;20053;-73
2021/09/06 10:04:33;;;;;;;14.27;8.15;;;20.40;99.90;;;;;;8250044;28;20105;-73
2021/09/06 10:08:35;;;;;;;11.77;6.97;;;20.40;99.90;;;;;;8250409;28;20058;-73
2021/09/06 10:12:37;;;;;;;14.25;8.50;;;20.50;99.90;;;;;;8250120;28;20457;-73
2021/09/06 10:16:39;;;;;;;13.27;7.85;;;20.50;99.90;;;;;;8250921;28;20049;-73
2021/09/06 10:20:41;;;;;;;14.52;7.75;;;20.60;99.90;;;;;;8248624;28;20142;-73
2021/09/06 10:24:54;;;;;;;11.25;7.00;;;20.70;99.90;;;;;;8250131;28;20518;-73
2021/09/06 10:28:55;;;;;;;16.88;8.63;;;20.80;99.90;;;;;;8245880;28;20046;-73
2021/09/06 10:32:57;;;;;;;14.65;8.10;;;21.00;99.90;;;;;;8247040;28;20406;-73
2021/09/06 10:37:04;;;;;;;13.65;7.32;;;21.10;99.90;;;;;;8248132;28;20065;-73
2021/09/06 10:41:13;;;;;;;13.63;7.10;;;21.20;99.90;;;;;;8262958;28;22972;-73
2021/09/06 10:45:15;;;;;;;12.13;6.53;;;21.20;99.90;;;;;;8248113;28;20054;-73
2021/09/06 10:49:23;;;;;;;10.77;6.18;;;21.30;99.90;;;;;;8250531;28;20043;-73
2021/09/06 10:53:25;;;;;;;10.43;6.28;;;21.40;99.90;;;;;;8248808;28;20046;-73
2021/09/06 10:57:27;;;;;;;9.85;5.82;;;21.50;99.90;;;;;;8249595;28;20058;-73
2021/09/06 11:01:31;;;;;;;10.98;6.53;;;21.40;99.90;;;;;;8249662;28;20421;-73
2021/09/06 11:05:33;;;;;;;12.27;6.65;;;21.40;99.90;;;;;;8250504;28;20051;-73
2021/09/06 11:09:36;;;;;;;10.10;6.78;;;21.40;99.90;;;;;;8252128;28;20054;-73
2021/09/06 11:13:40;;;;;;;12.15;7.05;;;21.40;99.90;;;;;;8251682;28;20414;-73
2021/09/06 11:17:42;;;;;;;10.20;6.57;;;21.40;99.90;;;;;;8249346;28;20406;-73
2021/09/06 11:21:44;;;;;;;15.35;7.45;;;21.40;99.90;;;;;;8247535;28;20046;-73
2021/09/06 11:25:49;;;;;;;;;;;21.40;99.90;;;;;;8248939;28;20054;-73
2021/09/06 11:29:50;;;;;;;;;;;21.60;99.90;;;;;;8249443;28;19933;-73
2021/09/06 11:33:58;;;;;;;;;;;21.70;99.90;;;;;;8247772;28;19949;-73
2021/09/06 11:38:04;;;;;;;;;;;21.80;99.90;;;;;;8249803;28;19922;-73
2021/09/06 11:42:08;;;;;;;;;;;21.90;99.90;;;;;;8248282;28;19928;-73
2021/09/06 11:46:13;;;;;;;;;;;21.80;99.90;;;;;;8249231;28;20365;-73
2021/09/06 11:50:16;;;;;;;;;;;21.90;99.90;;;;;;8254054;28;20028;-73
2021/09/06 11:54:39;;;;;;;;;;;21.90;99.90;;;;;;8248732;28;20003;-73
2021/09/06 11:58:44;;;;;;;;;;;22.00;99.90;;;;;;8248629;28;19929;-73
2021/09/06 12:02:50;;;;;;;;;;;22.10;99.90;;;;;;8245625;28;20305;-72
2021/09/06 12:06:52;;;;;;;;;;;22.10;99.90;;;;;;8249193;28;19925;-73
2021/09/06 12:11:03;;;;;;;;;;;22.00;99.90;;;;;;8245897;28;20286;-73
2021/09/06 12:15:05;;;;;;;;;;;22.00;99.90;;;;;;8251673;28;19926;-73
2021/09/06 12:19:17;;;;;;;;;;;21.90;99.90;;;;;;8255929;28;19925;-72
2021/09/06 12:23:30;;;;;;;;;;;21.90;99.90;;;;;;8251448;28;19922;-72
2021/09/06 12:27:35;;;;;;;;;;;21.80;99.90;;;;;;8252336;28;19926;-72
2021/09/06 12:31:43;;;;;;;;;;;21.80;99.90;;;;;;8253638;28;19925;-73
2021/09/06 12:35:45;;;;;;;;;;;21.80;99.90;;;;;;8254396;28;19960;-73
2021/09/06 12:39:47;;;;;;;;;;;21.80;99.90;;;;;;8255163;28;19926;-73
2021/09/06 12:43:48;;;;;;;;;;;21.80;99.90;;;;;;8259050;28;19930;-73
2021/09/06 12:47:50;;;;;;;;;;;21.80;99.90;;;;;;8255089;28;19925;-73
2021/09/06 12:51:52;;;;;;;;;;;21.90;99.90;;;;;;8269129;28;19929;-73
2021/09/06 12:55:54;;;;;;;;;;;21.90;99.90;;;;;;8255402;28;20296;-73
2021/09/06 12:59:55;;;;;;;;;;;21.90;99.90;;;;;;8253479;28;19926;-73
2021/09/06 13:03:57;;;;;;;;;;;22.00;99.90;;;;;;8254157;28;19925;-73
2021/09/06 13:08:00;;;;;;;;;;;22.10;99.90;;;;;;8254830;28;19981;-73
2021/09/06 13:12:02;;;;;;;;;;;22.10;99.90;;;;;;8252227;28;19928;-73
2021/09/06 13:16:03;;;;;;;;;;;22.20;99.90;;;;;;8254206;28;19921;-73
2021/09/06 13:20:06;;;;;;;;;;;22.30;99.90;;;;;;8253561;28;19965;-73
2021/09/06 13:24:08;;;;;;;;;;;22.40;99.90;;;;;;8265110;28;19940;-73
2021/09/06 13:28:10;;;;;;;13.10;8.30;;;22.50;99.90;;;;;;8250949;28;19930;-73
2021/09/06 13:32:11;;;;;;;;;;;22.60;99.90;;;;;;8252217;28;19953;-73
2021/09/06 13:36:13;;;;;;;;;;;22.50;99.90;;;;;;8252415;28;20366;-73
2021/09/06 13:40:15;;;;;;;;;;;22.50;99.90;;;;;;8253207;28;19966;-73
2021/09/06 13:44:16;;;;;;;;;;;22.50;99.90;;;;;;8255685;28;19933;-73
2021/09/06 13:48:18;;;;;;;;;;;22.50;99.90;;;;;;8254368;28;20274;-73
2021/09/06 13:52:20;;;;;;;;;;;22.50;99.90;;;;;;8238679;28;20330;-73
2021/09/06 13:56:21;;;;;;;;;;;22.60;99.90;;;;;;8254865;28;19928;-73
2021/09/06 14:00:23;;;;;;;;;;;22.60;99.90;;;;;;8257365;28;19922;-73
2021/09/06 14:04:25;;;;;;;;;;;22.80;99.90;;;;;;8253222;28;20384;-73
2021/09/06 14:08:26;;;;;;;;;;;23.00;99.90;;;;;;8239741;28;19925;-73
2021/09/06 14:12:28;;;;;;;;;;;23.00;99.90;;;;;;8252966;28;19933;-73
2021/09/06 14:16:30;;;;;;;;;;;23.10;99.90;;;;;;8252457;28;19930;-73
2021/09/06 14:20:31;;;;;;;;;;;23.20;99.90;;;;;;8250946;28;19926;-73
2021/09/06 14:24:33;;;;;;;;;;;23.20;99.90;;;;;;8254294;28;19921;-73
2021/09/06 14:28:35;;;;;;;;;;;23.20;99.90;;;;;;8252840;28;19921;-73
2021/09/06 14:32:36;;;;;;;;;;;23.20;99.90;;;;;;8251603;28;19933;-73
2021/09/06 14:36:38;;;;;;;;;;;23.30;99.90;;;;;;8255499;28;19925;-73
2021/09/06 14:40:40;;;;;;;;;;;23.30;99.90;;;;;;8251672;28;20321;-73
2021/09/06 14:44:41;;;;;;;;;;;23.20;99.90;;;;;;8256966;28;19940;-73
2021/09/06 14:48:43;;;;;;;;;;;23.20;99.90;;;;;;8252233;28;19922;-73
2021/09/06 14:52:45;;;;;;;;;;;23.20;99.90;;;;;;8250997;28;19933;-73
2021/09/06 14:56:47;;;;;;;;;;;23.20;99.90;;;;;;8236553;28;19926;-73
2021/09/06 15:00:49;;;;;;;;;;;23.20;99.90;;;;;;8251243;28;20332;-73
2021/09/06 15:04:51;;;;;;;;;;;23.30;99.90;;;;;;8251332;28;19930;-73
2021/09/06 15:08:53;;;;;;;;;;;23.50;99.90;;;;;;8251454;28;19925;-73
2021/09/06 15:12:54;;;;;;;10.48;5.65;;;23.60;99.90;;;;;;8249973;28;20444;-74
2021/09/06 15:16:56;;;;;;;8.60;5.53;;;23.70;99.90;;;;;;8251366;28;19926;-73
2021/09/06 15:20:58;;;;;;;9.48;5.95;;;23.80;99.90;;;;;;8249252;28;20046;-73
2021/09/06 15:25:00;;;;;;;9.07;5.50;;;23.80;99.90;;;;;;8250776;28;20474;-73
2021/09/06 15:29:01;;;;;;;;;;;23.90;99.90;;;;;;8250095;28;20050;-73
2021/09/06 15:33:03;;;;;;;;;;;24.00;99.90;;;;;;8249996;28;19922;-73
2021/09/06 15:37:06;;;;;;;;;;;24.00;99.90;;;;;;8250028;28;19969;-73
2021/09/06 15:41:08;;;;;;;;;;;24.00;99.90;;;;;;8246768;28;20335;-73
2021/09/06 15:45:10;;;;;;;;;;;24.10;99.90;;;;;;8247950;28;19922;-73
2021/09/06 15:49:12;;;;;;;;;;;24.10;99.90;;;;;;8244978;28;19930;-73
2021/09/06 15:53:14;;;;;;;;;;;24.20;99.90;;;;;;8244670;28;19925;-73
2021/09/06 15:57:16;;;;;;;9.50;6.63;;;24.20;99.90;;;;;;8249864;28;19937;-73
2021/09/06 16:01:18;;;;;;;10.98;6.53;;;24.20;99.90;;;;;;8247412;28;20046;-74
2021/09/06 16:05:20;;;;;;;10.60;7.03;;;24.30;99.90;;;;;;8247448;28;20042;-73
2021/09/06 16:09:22;;;;;;;9.50;6.35;;;24.40;99.90;;;;;;8249254;28;20751;-74
2021/09/06 16:13:24;;;;;;;10.95;6.55;;;24.40;99.90;;;;;;8247151;28;20054;-74
2021/09/06 16:17:26;;;;;;;10.20;6.22;;;24.40;99.90;;;;;;8262837;28;20046;-73
2021/09/06 16:21:28;;;;;;;10.75;6.53;;;24.30;99.90;;;;;;8243179;28;20050;-73
2021/09/06 16:25:29;;;;;;;12.05;6.93;;;24.20;99.90;;;;;;8246399;28;20153;-73
2021/09/06 16:29:31;;;;;;;9.77;6.47;;;24.20;99.90;;;;;;8242962;28;20059;-73
2021/09/06 16:33:33;;;;;;;12.02;7.00;;;24.10;99.90;;;;;;8231954;28;20109;-73
2021/09/06 16:37:35;;;;;;;11.02;6.93;;;24.10;99.90;;;;;;8241084;28;20086;-73
2021/09/06 16:41:36;;;;;;;12.70;7.75;;;24.10;99.90;;;;;;8245489;28;20522;-73
2021/09/06 16:45:38;;;;;;;10.40;7.00;;;24.10;99.90;;;;;;8248694;28;20046;-73
2021/09/06 16:49:40;;;;;;;11.40;7.05;;;24.30;99.90;;;;;;8248051;28;20043;-73
2021/09/06 16:53:42;;;;;;;10.80;7.20;;;24.80;99.90;;;;;;8256152;28;20339;-73
2021/09/06 16:57:45;;;;;;;11.52;7.40;;;25.20;99.90;;;;;;8247869;28;20053;-73
2021/09/06 17:01:48;;;;;;;13.45;7.50;;;25.70;99.90;;;;;;8249436;28;20054;-74
2021/09/06 17:05:50;;;;;;;11.27;7.68;;;26.00;99.90;;;;;;8260395;28;20042;-73
2021/09/06 17:09:51;;;;;;;11.45;7.70;;;26.20;99.90;;;;;;8250118;28;20615;-74
2021/09/06 17:13:53;;;;;;;12.10;8.00;;;26.40;99.90;;;;;;8252232;28;24820;-73
2021/09/06 17:17:55;;;;;;;10.02;7.05;;;26.50;99.90;;;;;;8253672;28;20050;-74
2021/09/06 17:21:59;;;;;;;10.17;7.23;;;26.50;99.90;;;;;;8254629;28;20782;-73
2021/09/06 17:26:01;;;;;;;10.50;7.40;;;26.30;99.90;;;;;;8251805;28;20271;-73
2021/09/06 17:30:04;;;;;;;11.53;7.90;;;26.10;99.90;;;;;;8251949;28;20069;-73
2021/09/06 17:34:05;;;;;;;11.30;7.97;;;25.50;99.90;;;;;;8253207;28;20069;-73
2021/09/06 17:38:07;;;;;;;11.00;7.85;;;25.00;99.90;;;;;;8252578;28;20298;-73
2021/09/06 17:42:09;;;;;;;12.38;7.78;;;24.50;99.90;;;;;;8243900;28;20078;-73
2021/09/06 17:46:10;;;;;;;11.65;8.02;;;24.00;99.90;;;;;;8267469;28;20073;-73
2021/09/06 17:50:12;;;;;;;12.10;8.27;;;23.70;99.90;;;;;;8253056;28;20054;-73
2021/09/06 17:54:14;;;;;;;13.90;8.60;;;23.40;99.90;;;;;;8252207;28;20057;-74
2021/09/06 17:58:16;;;;;;;11.50;8.13;;;23.10;99.90;;;;;;8267759;28;20053;-73
2021/09/06 18:02:17;;;;;;;14.63;8.68;;;22.90;99.90;;;;;;8250570;28;20627;-74
2021/09/06 18:06:19;;;;;;;16.08;9.40;;;22.70;99.90;;;;;;8254485;28;19936;-73
2021/09/06 18:10:21;;;;;;;13.95;8.45;;;22.50;99.90;;;;;;8253097;28;20370;-73
2021/09/06 18:14:23;;;;;;;13.15;8.80;;;22.40;99.90;;;;;;8254293;28;19926;-74
2021/09/06 18:18:25;;;;;;;15.00;8.75;;;22.30;99.90;;;;;;8253869;28;20682;-74
2021/09/06 18:22:26;;;;;;;14.90;8.80;;;22.20;99.90;;;;;;8268511;28;20498;-73
2021/09/06 18:26:29;;;;;;;13.40;8.80;;;22.20;99.90;;;;;;8254788;28;20058;-74
2021/09/06 18:30:33;;;;;;;16.20;9.68;;;22.10;99.90;;;;;;8254251;28;20101;-73
2021/09/06 18:34:34;;;;;;;14.55;9.32;;;22.00;99.90;;;;;;8255012;28;20047;-74
2021/09/06 18:38:36;;;;;;;14.52;8.68;;;21.90;99.90;;;;;;8255536;28;20062;-75
2021/09/06 18:42:41;;;;;;;13.13;8.85;;;21.80;99.90;;;;;;8259002;28;20482;-74
2021/09/06 18:46:43;;;;;;;13.13;8.43;;;21.70;99.90;;;;;;8255641;28;20054;-74
2021/09/06 18:50:44;;;;;;;14.50;8.80;;;21.60;99.90;;;;;;8253477;28;20437;-74
2021/09/06 18:54:46;;;;;;;15.43;9.23;;;21.50;99.90;;;;;;8254321;28;20101;-74
2021/09/06 18:58:48;;;;;;;21.83;9.05;;;21.40;99.90;;;;;;8253985;28;20062;-74
2021/09/06 19:02:51;;;;;;;13.50;8.05;;;21.30;99.90;;;;;;8251785;28;20124;-75
2021/09/06 19:06:55;;;;;;;14.15;8.70;;;21.20;99.90;;;;;;8251682;28;20054;-74
2021/09/06 19:11:07;;;;;;;19.02;9.55;;;21.20;99.90;;;;;;8250747;28;20046;-74
2021/09/06 19:15:11;;;;;;;15.65;8.60;;;21.10;99.90;;;;;;8267934;28;20092;-74
2021/09/06 19:19:13;;;;;;;16.50;9.05;;;21.00;99.90;;;;;;8260258;28;20046;-74
2021/09/06 19:23:14;;;;;;;16.05;8.68;;;21.00;99.90;;;;;;8252300;28;20328;-74
2021/09/06 19:27:16;;;;;;;14.35;8.55;;;20.90;99.90;;;;;;8253759;28;20054;-73
2021/09/06 19:31:18;;;;;;;16.75;9.05;;;20.80;99.90;;;;;;8254090;28;20108;-73
2021/09/06 19:35:22;;;;;;;17.50;8.95;;;20.70;99.90;;;;;;8249850;28;20050;-74
2021/09/06 19:39:24;;;;;;;16.42;9.45;;;20.70;99.90;;;;;;8253032;28;20042;-73
2021/09/06 19:43:26;;;;;;;15.82;9.52;;;20.60;99.90;;;;;;8255323;28;20053;-73
2021/09/06 19:47:28;;;;;;;15.02;8.85;;;20.50;99.90;;;;;;8242199;28;20073;-74
2021/09/06 19:51:31;;;;;;;14.35;9.30;;;20.40;99.90;;;;;;8242224;28;20457;-75
2021/09/06 19:55:34;;;;;;;15.45;9.18;;;20.40;99.90;;;;;;8246457;28;20378;-73
2021/09/06 19:59:36;;;;;;;15.45;9.32;;;20.30;99.90;;;;;;8251696;28;20049;-74
2021/09/06 20:03:38;;;;;;;14.55;9.18;;;20.20;99.90;;;;;;8259580;28;20395;-73
2021/09/06 20:07:42;;;;;;;15.05;9.05;;;20.20;99.90;;;;;;8242534;28;20489;-73
2021/09/06 20:11:45;;;;;;;14.73;8.50;;;20.10;99.90;;;;;;8250473;28;20774;-74
2021/09/06 20:15:48;;;;;;;15.82;9.10;;;20.00;99.90;;;;;;8250199;28;20152;-73
2021/09/06 20:19:50;;;;;;;15.88;9.23;;;20.00;99.90;;;;;;8249600;28;20047;-74
2021/09/06 20:23:52;;;;;;;13.80;9.05;;;20.00;99.90;;;;;;8251595;28;20058;-73
2021/09/06 20:27:53;;;;;;;17.20;9.50;;;19.90;99.90;;;;;;8251408;28;19926;-73
2021/09/06 20:31:55;;;;;;;15.93;9.43;;;19.90;99.90;;;;;;8245696;28;20043;-73
2021/09/06 20:35:58;;;;;;;14.15;9.00;;;19.80;99.90;;;;;;8253686;28;20409;-74
2021/09/06 20:40:00;;;;;;;16.27;9.20;;;19.70;99.90;;;;;;8256891;28;20105;-73
2021/09/06 20:44:02;;;;;;;15.93;9.02;;;19.70;99.90;;;;;;8256553;28;20047;-73
2021/09/06 20:48:04;;;;;;;14.35;9.27;;;19.60;99.90;;;;;;8257162;28;20069;-74
2021/09/06 20:52:06;;;;;;;15.25;9.82;;;19.60;99.90;;;;;;8254730;28;20702;-73
2021/09/06 20:56:08;;;;;;;15.38;9.32;;;19.50;99.90;;;;;;8256997;28;20112;-74
2021/09/06 21:00:10;;;;;;;14.98;8.88;;;19.50;99.90;;;;;;8256964;28;20086;-74
2021/09/06 21:04:12;;;;;;;19.02;9.82;;;19.50;99.90;;;;;;8264130;28;20049;-74
2021/09/06 21:08:14;;;;;;;14.13;9.38;;;19.40;99.90;;;;;;8265151;28;20145;-73
2021/09/06 21:12:15;;;;;;;14.82;9.43;;;19.40;99.90;;;;;;8263317;28;20406;-74
2021/09/06 21:16:17;;;;;;;15.07;9.38;;;19.30;99.90;;;;;;8263646;28;20046;-74